This is the latest recevied weather packets stored in our database for station/object WA6GRA. If no packets are shown the sender has not sent any weather packets the latest 1 day(s).
| Time | Temp. | Humidity | Pressure | Rain* | Wind** | Luminosity | Snow |
|---|---|---|---|---|---|---|---|
| 1778018536 | 20° C | 49% | 1014.5 hPa | 0 mm | 2.68 m/s, 243° | 799 W/m² | - |
| 1778017931 | 20.56° C | 48% | 1014.6 hPa | 0 mm | 3.58 m/s, 266° | 865 W/m² | - |
| 1778017326 | 20° C | 51% | 1014.6 hPa | 0 mm | 2.24 m/s, 273° | 620 W/m² | - |
| 1778016720 | 20.56° C | 51% | 1014.8 hPa | 0 mm | 2.24 m/s, 180° | 219 W/m² | - |
| 1778016119 | 20° C | 50% | 1014.7 hPa | 0 mm | 2.68 m/s, 330° | 1036 W/m² | - |
| 1778015519 | 20° C | 52% | 1014.8 hPa | 0 mm | 3.13 m/s, 270° | 1080 W/m² | - |
| 1778014919 | 20° C | 51% | 1014.7 hPa | 0 mm | 2.68 m/s, 19° | 1022 W/m² | - |
| 1778014314 | 19.44° C | 54% | 1015 hPa | 0 mm | 2.24 m/s, 252° | 1104 W/m² | - |
| 1778013714 | 18.89° C | 53% | 1014.8 hPa | 0 mm | 0.89 m/s, 326° | 904 W/m² | - |
| 1778013114 | 18.89° C | 58% | 1014.7 hPa | 0 mm | 0.45 m/s, 28° | 266 W/m² | - |
| 1778012512 | 19.44° C | 58% | 1015 hPa | 0 mm | 1.79 m/s, 273° | 985 W/m² | - |
| 1778011912 | 19.44° C | 58% | 1014.9 hPa | 0 mm | 0.89 m/s, 274° | 1025 W/m² | - |
| 1778011312 | 17.78° C | 62% | 1015 hPa | 0 mm | 2.68 m/s, 265° | 651 W/m² | - |
| 1778010712 | 17.78° C | 62% | 1015 hPa | 0 mm | 3.58 m/s, 276° | 686 W/m² | - |
| 1778010111 | 17.78° C | 63% | 1015.2 hPa | 0 mm | 2.68 m/s, 348° | 875 W/m² | - |
| 1778009510 | 17.22° C | 65% | 1015.3 hPa | 0 mm | 2.68 m/s, 322° | 1175 W/m² | - |
| 1778008906 | 16.67° C | 69% | 1015.4 hPa | 0 mm | 1.34 m/s, 309° | 841 W/m² | - |
| 1778008302 | 16.67° C | 68% | 1015.3 hPa | 0 mm | 2.68 m/s, 297° | 477 W/m² | - |
| 1778007698 | 16.11° C | 68% | 1015.4 hPa | 0 mm | 2.24 m/s, 293° | 599 W/m² | - |
| 1778007097 | 15.56° C | 70% | 1015.6 hPa | 0 mm | 2.24 m/s, 335° | 371 W/m² | - |
| 1778006496 | 15.56° C | 71% | 1015.5 hPa | 0 mm | 1.79 m/s, 310° | 280 W/m² | - |
| 1778005891 | 15.56° C | 71% | 1015.5 hPa | 0 mm | 2.24 m/s, 318° | 238 W/m² | - |
| 1778005289 | 16.11° C | 69% | 1015.4 hPa | 0 mm | 2.68 m/s, 308° | 277 W/m² | - |
| 1778004689 | 15.56° C | 70% | 1015.4 hPa | 0 mm | 2.24 m/s, 305° | 501 W/m² | - |
| 1778004089 | 15° C | 73% | 1015.2 hPa | 0 mm | 1.79 m/s, 316° | 518 W/m² | - |
* Rain latest hour (hover to see other rain measurements)
** Current wind speed in m/s (hover to see current wind gust speed)